Time;durP1;ratioP1;P1;durP2;ratioP2;P2;SDS_P1;SDS_P2;PMS_P1;PMS_P2;Temp;Humidity;BMP_temperature;BMP_pressure;BME280_temperature;BME280_humidity;BME280_pressure;Samples;Min_cycle;Max_cycle;Signal;HPM_P1;HPM_P2
2021/01/13 00:00:07;;;;;;;10.97;3.93;;;6.60;68.50;;;;;;4975887;28;20034;-68
2021/01/13 00:02:33;;;;;;;8.40;3.77;;;6.40;69.00;;;;;;5009770;28;20113;-69
2021/01/13 00:04:59;;;;;;;9.70;3.93;;;6.30;69.40;;;;;;4993262;28;20105;-69
2021/01/13 00:07:24;;;;;;;16.53;4.23;;;6.30;69.50;;;;;;4991948;28;20030;-69
2021/01/13 00:09:50;;;;;;;14.67;4.27;;;6.40;69.50;;;;;;4992029;28;20035;-69
2021/01/13 00:12:16;;;;;;;11.77;3.20;;;6.40;69.40;;;;;;5003138;28;20045;-68
2021/01/13 00:14:44;;;;;;;11.70;3.43;;;6.40;69.30;;;;;;5007752;28;20030;-68
2021/01/13 00:17:10;;;;;;;13.33;3.53;;;6.40;69.10;;;;;;5008172;28;20034;-69
2021/01/13 00:19:37;;;;;;;10.43;3.13;;;6.40;69.10;;;;;;4994656;28;20117;-69
2021/01/13 00:22:03;;;;;;;11.13;3.47;;;6.40;69.10;;;;;;5007608;28;20042;-69
2021/01/13 00:24:29;;;;;;;9.97;3.40;;;6.30;69.00;;;;;;5009017;28;20034;-68
2021/01/13 00:27:00;;;;;;;11.37;3.57;;;6.40;68.90;;;;;;5007898;28;20057;-69
2021/01/13 00:29:25;;;;;;;8.87;3.20;;;6.40;68.90;;;;;;5009668;28;20459;-69
2021/01/13 00:31:55;;;;;;;10.03;3.23;;;6.40;69.00;;;;;;5009382;28;20049;-70
2021/01/13 00:34:21;;;;;;;13.47;3.53;;;6.30;69.00;;;;;;5009065;28;20049;-69
2021/01/13 00:36:46;;;;;;;9.10;3.03;;;6.30;68.90;;;;;;5013887;28;20034;-69
2021/01/13 00:39:13;;;;;;;10.57;3.23;;;6.30;69.00;;;;;;5009662;28;20041;-69
2021/01/13 00:41:39;;;;;;;10.50;3.10;;;6.30;69.10;;;;;;5014298;28;20125;-69
2021/01/13 00:44:05;;;;;;;11.77;3.67;;;6.20;69.20;;;;;;5009495;28;20480;-69
2021/01/13 00:46:39;;;;;;;23.83;5.00;;;6.20;69.40;;;;;;4997026;28;20057;-69
2021/01/13 00:49:06;;;;;;;10.82;4.28;;;6.20;69.50;;;;;;5003238;28;20549;-69
2021/01/13 00:51:36;;;;;;;18.07;4.37;;;6.10;69.70;;;;;;5007273;28;20042;-68
2021/01/13 00:54:03;;;;;;;10.87;3.80;;;6.10;69.70;;;;;;5003833;28;20030;-68
2021/01/13 00:56:29;;;;;;;9.33;4.03;;;6.20;69.60;;;;;;5013486;28;20026;-69
2021/01/13 00:58:57;;;;;;;12.17;4.00;;;6.20;69.60;;;;;;4996771;28;20121;-70
2021/01/13 01:01:25;;;;;;;8.13;3.53;;;6.10;69.80;;;;;;5023974;28;20419;-69
2021/01/13 01:03:52;;;;;;;20.00;5.27;;;6.10;70.00;;;;;;5000087;28;20077;-69
2021/01/13 01:06:18;;;;;;;9.23;3.87;;;6.00;70.10;;;;;;5010668;28;20029;-68
2021/01/13 01:08:44;;;;;;;13.27;5.13;;;6.00;70.30;;;;;;5010362;28;20088;-69
2021/01/13 01:11:10;;;;;;;10.23;3.60;;;6.00;70.30;;;;;;5013231;28;20022;-68
2021/01/13 01:13:37;;;;;;;9.03;3.47;;;6.10;70.30;;;;;;5011069;28;20037;-68
2021/01/13 01:16:03;;;;;;;11.07;4.67;;;6.10;70.30;;;;;;5008554;28;20061;-68
2021/01/13 01:18:29;;;;;;;11.80;3.80;;;6.10;70.30;;;;;;5002112;28;20093;-71
2021/01/13 01:20:54;;;;;;;9.67;3.00;;;6.10;70.40;;;;;;5003975;28;20041;-70
2021/01/13 01:23:20;;;;;;;9.43;3.70;;;6.10;70.70;;;;;;4975599;28;20045;-71
2021/01/13 01:25:46;;;;;;;12.43;4.03;;;6.10;71.10;;;;;;5001860;28;20030;-70
2021/01/13 01:28:11;;;;;;;9.33;3.30;;;6.10;71.00;;;;;;5011512;28;20371;-71
2021/01/13 01:30:37;;;;;;;10.23;3.60;;;6.20;70.90;;;;;;4991381;28;20034;-71
2021/01/13 01:33:03;;;;;;;10.10;3.77;;;6.30;70.60;;;;;;5008233;28;20031;-71
2021/01/13 01:35:28;;;;;;;10.67;3.47;;;6.40;70.30;;;;;;4993276;28;20033;-70
2021/01/13 01:37:54;;;;;;;9.97;2.90;;;6.40;70.00;;;;;;5010863;28;20038;-68
2021/01/13 01:40:20;;;;;;;11.33;4.40;;;6.40;69.90;;;;;;4995036;28;20116;-68
2021/01/13 01:42:51;;;;;;;6.87;2.87;;;6.40;69.90;;;;;;5010788;28;20034;-68
2021/01/13 01:45:23;;;;;;;13.43;4.47;;;6.40;70.00;;;;;;5000394;28;20147;-68
2021/01/13 01:48:07;;;;;;;8.83;2.90;;;6.40;69.90;;;;;;4997459;28;20412;-67
2021/01/13 01:50:38;;;;;;;9.00;3.13;;;6.40;69.90;;;;;;4991044;28;20034;-68
2021/01/13 01:53:07;;;;;;;8.07;2.50;;;6.40;69.90;;;;;;5005578;28;20025;-68
2021/01/13 01:55:40;;;;;;;9.43;2.70;;;6.40;69.90;;;;;;5007203;28;20034;-68
2021/01/13 01:58:10;;;;;;;14.05;4.90;;;6.40;70.00;;;;;;5007287;28;20030;-68
2021/01/13 02:00:36;;;;;;;8.10;2.80;;;6.40;69.90;;;;;;5002673;28;20030;-68
2021/01/13 02:03:13;;;;;;;10.37;3.00;;;6.40;69.90;;;;;;5008442;28;20114;-68
2021/01/13 02:05:41;;;;;;;10.27;3.40;;;6.40;69.90;;;;;;5007741;28;20375;-68
2021/01/13 02:08:12;;;;;;;12.63;3.37;;;6.40;69.80;;;;;;5011362;28;20739;-68
2021/01/13 02:10:41;;;;;;;8.50;2.60;;;6.30;69.60;;;;;;5010308;28;20116;-68
2021/01/13 02:13:07;;;;;;;9.73;3.20;;;6.30;69.70;;;;;;5011552;28;20026;-68
2021/01/13 02:15:33;;;;;;;11.53;3.10;;;6.20;69.70;;;;;;5011375;28;20527;-68
2021/01/13 02:18:04;;;;;;;8.67;3.07;;;6.20;69.70;;;;;;5012455;28;20137;-69
2021/01/13 02:20:31;;;;;;;6.13;2.73;;;6.10;69.80;;;;;;5010886;28;20033;-68
2021/01/13 02:23:08;;;;;;;7.93;2.50;;;6.10;70.10;;;;;;5012175;28;20212;-68
2021/01/13 02:26:16;;;;;;;7.13;2.23;;;6.10;70.20;;;;;;5004682;28;20037;-70
2021/01/13 02:29:25;;;;;;;12.20;3.17;;;6.10;70.30;;;;;;5013899;28;20061;-70
2021/01/13 02:32:06;;;;;;;7.67;1.97;;;6.10;70.30;;;;;;5005882;28;20034;-70
2021/01/13 02:34:45;;;;;;;5.93;2.40;;;6.10;70.30;;;;;;4996681;28;20040;-70
2021/01/13 02:37:32;;;;;;;9.43;2.83;;;6.00;70.40;;;;;;5011325;28;20017;-71
2021/01/13 02:39:58;;;;;;;5.07;1.60;;;6.00;70.80;;;;;;5010053;28;20369;-70
2021/01/13 02:42:31;;;;;;;6.50;2.03;;;6.00;71.30;;;;;;5011135;28;20037;-70
2021/01/13 02:45:12;;;;;;;23.73;3.00;;;6.00;71.60;;;;;;5003821;28;20023;-71
2021/01/13 02:47:57;;;;;;;9.00;2.27;;;6.00;71.90;;;;;;5009980;28;20060;-70
2021/01/13 02:50:28;;;;;;;8.27;2.20;;;6.10;72.30;;;;;;4999681;28;20048;-70
2021/01/13 02:53:09;;;;;;;5.70;2.30;;;6.10;72.20;;;;;;5009819;28;20094;-70
2021/01/13 02:55:39;;;;;;;11.93;3.10;;;6.10;72.30;;;;;;5009367;28;20037;-68
2021/01/13 02:58:08;;;;;;;9.43;2.87;;;6.20;72.30;;;;;;5011426;28;20069;-68
2021/01/13 03:00:36;;;;;;;7.23;2.27;;;6.20;72.30;;;;;;5010635;28;20034;-67
2021/01/13 03:03:02;;;;;;;11.37;2.40;;;6.30;72.30;;;;;;5011215;28;20025;-68
2021/01/13 03:05:28;;;;;;;8.07;2.37;;;6.30;72.40;;;;;;5000116;28;20034;-68
2021/01/13 03:07:58;;;;;;;10.37;2.57;;;6.30;72.40;;;;;;4994229;28;20035;-68
2021/01/13 03:10:26;;;;;;;9.53;1.83;;;6.30;72.30;;;;;;4993210;28;20026;-68
2021/01/13 03:13:03;;;;;;;5.30;1.80;;;6.30;71.90;;;;;;5009921;28;20037;-68
2021/01/13 03:15:31;;;;;;;9.17;2.40;;;6.30;71.90;;;;;;5011183;28;20037;-68
2021/01/13 03:18:19;;;;;;;5.73;2.20;;;6.30;71.90;;;;;;5010864;28;20038;-68
2021/01/13 03:20:59;;;;;;;7.10;2.00;;;6.20;72.00;;;;;;5011064;28;20034;-68
2021/01/13 03:23:30;;;;;;;8.17;2.57;;;6.20;72.10;;;;;;5001174;28;20037;-70
2021/01/13 03:26:03;;;;;;;11.03;2.63;;;6.10;72.10;;;;;;5004287;28;20052;-70
2021/01/13 03:28:33;;;;;;;;;;;6.10;72.70;;;;;;5010991;28;20475;-70
2021/01/13 03:31:00;;;;;;;8.80;2.17;;;6.00;72.30;;;;;;5010932;28;20000;-70
2021/01/13 03:33:26;;;;;;;10.23;2.67;;;6.00;72.60;;;;;;5001989;28;20149;-70
2021/01/13 03:36:08;;;;;;;9.37;2.17;;;6.00;72.80;;;;;;5006168;28;20105;-70
2021/01/13 03:38:42;;;;;;;6.17;1.70;;;6.00;72.80;;;;;;5009713;28;20053;-70
2021/01/13 03:41:08;;;;;;;9.07;2.13;;;6.00;72.80;;;;;;5010824;28;20076;-70
2021/01/13 03:43:36;;;;;;;8.37;2.30;;;6.10;72.70;;;;;;5001001;28;20927;-70
2021/01/13 03:46:08;;;;;;;7.43;2.03;;;6.20;72.50;;;;;;4996695;28;20030;-70
2021/01/13 03:48:50;;;;;;;8.73;1.90;;;6.10;72.60;;;;;;5003413;28;20095;-69
2021/01/13 03:51:25;;;;;;;7.97;2.73;;;6.10;72.70;;;;;;5008019;28;20034;-70
2021/01/13 03:53:58;;;;;;;9.73;2.27;;;6.10;72.80;;;;;;4994759;28;20141;-70
2021/01/13 03:56:28;;;;;;;9.98;2.22;;;6.10;73.00;;;;;;5007842;28;20037;-70
2021/01/13 03:58:58;;;;;;;11.53;2.90;;;6.20;73.20;;;;;;4990759;28;20034;-69
2021/01/13 04:01:41;;;;;;;9.80;2.43;;;6.20;73.20;;;;;;5004962;28;20403;-70
2021/01/13 04:04:32;;;;;;;6.80;2.78;;;6.30;73.30;;;;;;4991589;28;20392;-71
2021/01/13 04:07:00;;;;;;;7.10;2.37;;;6.40;73.20;;;;;;5010198;28;20022;-70
2021/01/13 04:09:30;;;;;;;7.27;1.73;;;6.40;73.10;;;;;;5008520;28;20105;-70
2021/01/13 04:12:10;;;;;;;8.00;2.37;;;6.50;73.20;;;;;;5007624;28;20038;-70
2021/01/13 04:14:51;;;;;;;6.93;1.90;;;6.60;73.40;;;;;;5008357;28;20028;-69
2021/01/13 04:17:18;;;;;;;6.47;1.63;;;6.60;73.90;;;;;;5009193;28;20096;-70
2021/01/13 04:19:45;;;;;;;12.73;2.27;;;6.60;74.50;;;;;;5006509;28;20558;-70
2021/01/13 04:22:13;;;;;;;13.13;2.43;;;6.60;74.90;;;;;;5009689;28;20037;-70
2021/01/13 04:24:41;;;;;;;6.53;1.93;;;6.60;75.10;;;;;;5005564;28;20069;-69
2021/01/13 04:27:07;;;;;;;5.13;1.40;;;6.60;75.30;;;;;;4997910;28;20232;-70
2021/01/13 04:29:33;;;;;;;8.03;1.50;;;6.70;75.50;;;;;;5003032;28;20136;-70
2021/01/13 04:31:59;;;;;;;5.17;1.17;;;6.60;75.50;;;;;;5010055;28;20563;-70
2021/01/13 04:34:25;;;;;;;9.07;2.43;;;6.60;75.60;;;;;;5008551;28;20101;-70
2021/01/13 04:36:53;;;;;;;11.67;2.07;;;6.60;75.80;;;;;;5009868;28;20033;-70
2021/01/13 04:39:19;;;;;;;8.33;1.60;;;6.60;76.00;;;;;;5008677;28;20045;-70
2021/01/13 04:42:06;;;;;;;6.07;1.53;;;6.60;76.10;;;;;;5009046;28;20061;-70
2021/01/13 04:44:49;;;;;;;8.47;1.67;;;6.60;76.40;;;;;;5002039;28;20030;-71
2021/01/13 04:47:20;;;;;;;13.97;2.53;;;6.70;76.60;;;;;;4989150;28;20035;-70
2021/01/13 04:49:55;;;;;;;7.17;1.30;;;6.60;76.70;;;;;;5002296;28;20472;-70
2021/01/13 04:52:30;;;;;;;10.23;1.93;;;6.60;76.90;;;;;;5010227;28;20057;-70
2021/01/13 04:54:58;;;;;;;11.80;2.07;;;6.70;77.00;;;;;;5005005;28;20027;-70
2021/01/13 04:58:02;;;;;;;7.23;1.70;;;6.70;76.80;;;;;;4990410;28;20480;-70
2021/01/13 05:00:52;;;;;;;8.73;1.87;;;6.80;76.70;;;;;;5023992;28;20125;-70
2021/01/13 05:03:29;;;;;;;9.32;2.17;;;6.90;76.50;;;;;;5006207;28;20018;-70
2021/01/13 05:06:32;;;;;;;7.13;1.87;;;6.80;76.50;;;;;;4998765;28;20031;-70
2021/01/13 05:09:08;;;;;;;6.50;1.37;;;6.90;76.50;;;;;;4997916;28;20034;-70
2021/01/13 05:11:47;;;;;;;8.30;2.53;;;6.90;76.20;;;;;;5008451;28;20149;-70
2021/01/13 05:14:14;;;;;;;9.53;3.27;;;7.00;76.10;;;;;;5008683;28;20028;-71
2021/01/13 05:16:49;;;;;;;10.00;1.60;;;7.00;75.90;;;;;;4992054;28;20121;-70
2021/01/13 05:19:56;;;;;;;8.50;1.73;;;7.00;75.80;;;;;;4999139;28;20030;-70
2021/01/13 05:22:25;;;;;;;6.33;1.27;;;6.90;75.70;;;;;;5011519;28;20076;-70
2021/01/13 05:24:53;;;;;;;7.73;1.40;;;6.90;75.70;;;;;;5009809;28;20132;-70
2021/01/13 05:28:03;;;;;;;6.80;1.73;;;6.90;75.50;;;;;;5010900;28;20077;-70
2021/01/13 05:30:41;;;;;;;10.20;2.70;;;6.90;75.50;;;;;;4994442;28;20528;-70
2021/01/13 05:33:12;;;;;;;9.33;1.80;;;6.80;75.40;;;;;;5009061;28;20025;-71
2021/01/13 05:35:41;;;;;;;6.03;1.87;;;5.30;74.40;;;;;;4994343;28;20034;-70
2021/01/13 05:38:08;;;;;;;6.50;2.00;;;6.90;75.10;;;;;;5007957;28;20035;-70
2021/01/13 05:40:59;;;;;;;8.73;1.90;;;6.90;74.90;;;;;;5012726;28;20037;-70
2021/01/13 05:43:25;;;;;;;6.30;1.97;;;6.90;74.80;;;;;;5009774;28;20388;-70
2021/01/13 05:45:51;;;;;;;11.30;3.57;;;6.90;74.70;;;;;;5005721;28;20041;-70
2021/01/13 05:48:19;;;;;;;8.37;2.57;;;6.90;74.70;;;;;;4983023;28;20403;-71
2021/01/13 05:50:46;;;;;;;8.27;1.93;;;6.80;74.80;;;;;;5011154;28;20442;-70
2021/01/13 05:53:13;;;;;;;7.67;2.37;;;6.80;75.00;;;;;;5011943;28;20484;-70
2021/01/13 05:55:46;;;;;;;11.20;3.37;;;6.70;75.30;;;;;;5010290;28;20037;-71
2021/01/13 05:58:12;;;;;;;12.50;3.75;;;6.60;75.70;;;;;;5007648;28;20041;-70
2021/01/13 06:00:38;;;;;;;9.10;2.30;;;6.60;76.00;;;;;;5010345;28;20125;-71
2021/01/13 06:03:05;;;;;;;8.97;2.30;;;6.60;76.00;;;;;;5009401;28;20116;-70
2021/01/13 06:05:32;;;;;;;9.53;2.30;;;6.60;76.20;;;;;;4998880;28;20381;-71
2021/01/13 06:08:00;;;;;;;12.20;3.10;;;6.50;76.10;;;;;;5007716;28;20030;-70
2021/01/13 06:10:34;;;;;;;6.80;2.50;;;6.50;76.20;;;;;;5000219;28;20018;-70
2021/01/13 06:13:04;;;;;;;10.38;2.45;;;6.60;76.10;;;;;;5010490;28;20042;-70
2021/01/13 06:15:31;;;;;;;7.07;2.27;;;6.50;76.00;;;;;;5012020;28;20026;-70
2021/01/13 06:17:59;;;;;;;18.83;5.07;;;6.50;76.40;;;;;;5011046;28;20025;-70
2021/01/13 06:20:30;;;;;;;10.53;2.53;;;6.40;76.50;;;;;;5006651;28;20038;-71
2021/01/13 06:22:58;;;;;;;7.73;2.07;;;6.50;76.60;;;;;;5000965;28;20025;-70
2021/01/13 06:25:29;;;;;;;8.17;2.67;;;6.40;76.50;;;;;;5011039;28;20037;-70
2021/01/13 06:27:57;;;;;;;13.90;3.30;;;6.40;76.60;;;;;;5011417;28;20057;-70
2021/01/13 06:30:28;;;;;;;9.63;2.57;;;6.40;76.60;;;;;;5009645;28;20088;-70
2021/01/13 06:33:01;;;;;;;12.57;3.43;;;6.40;76.60;;;;;;5009079;28;20049;-71
2021/01/13 06:35:39;;;;;;;9.73;2.97;;;6.40;76.40;;;;;;4993030;28;20101;-71
2021/01/13 06:38:15;;;;;;;13.13;3.67;;;6.40;76.20;;;;;;5007770;28;20033;-70
2021/01/13 06:40:41;;;;;;;9.17;3.40;;;6.50;76.10;;;;;;5004002;28;20042;-70
2021/01/13 06:43:14;;;;;;;9.70;3.20;;;6.50;76.00;;;;;;5002354;28;20030;-70
2021/01/13 06:45:40;;;;;;;11.57;3.60;;;6.50;75.90;;;;;;5004519;28;20864;-72
2021/01/13 06:48:07;;;;;;;9.17;2.97;;;6.40;75.80;;;;;;5005206;28;20084;-70
2021/01/13 06:50:34;;;;;;;18.20;4.20;;;6.50;75.80;;;;;;4999493;28;20356;-70
2021/01/13 06:53:04;;;;;;;11.77;2.87;;;6.50;75.50;;;;;;5009837;28;20557;-70
2021/01/13 06:55:31;;;;;;;8.33;2.53;;;6.60;75.30;;;;;;5010099;28;20105;-70
2021/01/13 06:58:14;;;;;;;8.40;3.33;;;6.60;74.90;;;;;;5008851;28;20490;-70
2021/01/13 07:00:40;;;;;;;13.53;3.83;;;6.60;74.80;;;;;;5010130;28;20041;-70
2021/01/13 07:03:18;;;;;;;22.63;4.67;;;6.60;74.70;;;;;;5006203;28;20034;-70
2021/01/13 07:05:44;;;;;;;18.03;5.43;;;6.60;74.70;;;;;;5008763;28;20604;-70
2021/01/13 07:08:09;;;;;;;16.07;4.50;;;6.60;74.60;;;;;;5003889;28;20105;-70
2021/01/13 07:10:37;;;;;;;13.57;5.57;;;6.60;74.50;;;;;;5004810;28;20123;-70
2021/01/13 07:13:07;;;;;;;14.80;3.63;;;6.60;74.30;;;;;;4991907;28;20027;-70
2021/01/13 07:15:33;;;;;;;7.20;2.53;;;6.60;74.20;;;;;;5005091;28;20024;-70
2021/01/13 07:18:01;;;;;;;12.70;3.20;;;6.50;74.20;;;;;;5002743;28;20041;-70
2021/01/13 07:20:29;;;;;;;10.83;3.00;;;6.50;74.20;;;;;;5009167;28;20432;-69
2021/01/13 07:22:55;;;;;;;13.97;3.53;;;7.70;74.90;;;;;;4991260;28;20041;-71
2021/01/13 07:25:21;;;;;;;12.20;3.13;;;6.40;74.20;;;;;;4999199;28;20045;-72
2021/01/13 07:27:49;;;;;;;12.53;3.27;;;6.40;74.10;;;;;;5007678;28;20116;-70
2021/01/13 07:30:17;;;;;;;17.10;3.83;;;6.40;74.10;;;;;;5010327;28;20021;-70
2021/01/13 07:32:51;;;;;;;7.60;2.40;;;6.40;74.00;;;;;;5009834;28;20030;-70
2021/01/13 07:35:22;;;;;;;7.27;2.77;;;6.40;74.10;;;;;;5005705;28;20519;-70
2021/01/13 07:37:53;;;;;;;9.60;2.50;;;6.30;74.10;;;;;;5009340;28;20034;-69
2021/01/13 07:41:01;;;;;;;9.27;2.97;;;6.40;74.00;;;;;;5012349;28;20425;-70
2021/01/13 07:43:41;;;;;;;16.60;4.20;;;6.40;73.60;;;;;;4996701;28;20034;-70
2021/01/13 07:46:15;;;;;;;13.43;4.00;;;6.40;73.70;;;;;;5012345;28;20021;-70
2021/01/13 07:49:18;;;;;;;10.77;2.90;;;6.40;73.60;;;;;;5008765;28;20041;-70
2021/01/13 07:51:55;;;;;;;14.10;3.67;;;6.40;73.30;;;;;;4997777;28;20136;-71
2021/01/13 07:54:31;;;;;;;28.10;3.47;;;6.40;73.40;;;;;;4996964;28;20034;-71
2021/01/13 07:57:05;;;;;;;7.87;3.40;;;6.40;73.40;;;;;;5010008;28;20032;-70
2021/01/13 07:59:40;;;;;;;8.43;2.70;;;6.40;73.30;;;;;;5000751;28;20038;-68
2021/01/13 08:02:43;;;;;;;15.13;4.07;;;6.40;73.30;;;;;;5015909;28;20107;-70
2021/01/13 08:05:23;;;;;;;14.20;3.60;;;6.40;73.20;;;;;;5008290;28;20065;-71
2021/01/13 08:08:09;;;;;;;10.43;2.50;;;6.50;73.20;;;;;;5009162;28;20050;-71
2021/01/13 08:10:37;;;;;;;10.03;2.93;;;6.50;72.80;;;;;;5005700;28;20037;-71
2021/01/13 08:13:18;;;;;;;9.23;3.07;;;6.50;72.90;;;;;;5010612;28;20120;-70
2021/01/13 08:15:50;;;;;;;9.20;2.50;;;6.60;72.80;;;;;;5009780;28;20030;-71
2021/01/13 08:18:53;;;;;;;10.87;2.77;;;6.60;72.70;;;;;;5008212;28;20030;-71
2021/01/13 08:21:34;;;;;;;10.43;2.80;;;6.70;72.40;;;;;;5013500;28;20049;-70
2021/01/13 08:24:16;;;;;;;11.23;3.13;;;6.70;72.20;;;;;;4997597;28;20120;-71
2021/01/13 08:26:43;;;;;;;12.00;3.37;;;6.70;72.20;;;;;;5007486;28;20482;-71
2021/01/13 08:29:18;;;;;;;8.53;2.60;;;6.70;72.30;;;;;;4976178;28;20461;-70
2021/01/13 08:32:03;;;;;;;11.67;3.63;;;6.70;72.30;;;;;;4998571;28;20033;-70
2021/01/13 08:34:40;;;;;;;11.47;4.17;;;6.60;72.40;;;;;;5008888;28;20026;-70
2021/01/13 08:37:07;;;;;;;14.00;3.77;;;6.60;72.40;;;;;;5009764;28;20058;-70
2021/01/13 08:39:33;;;;;;;14.53;4.33;;;6.70;72.40;;;;;;5009493;28;20547;-70
2021/01/13 08:42:20;;;;;;;9.80;3.27;;;6.70;72.20;;;;;;5010487;28;20069;-70
2021/01/13 08:44:46;;;;;;;14.30;4.30;;;6.80;72.00;;;;;;5009033;28;20113;-70
2021/01/13 08:47:12;;;;;;;12.50;3.60;;;6.90;71.90;;;;;;5005963;28;20097;-71
2021/01/13 08:49:38;;;;;;;9.83;4.47;;;7.10;71.90;;;;;;5008877;28;20440;-70
2021/01/13 08:52:11;;;;;;;11.87;3.80;;;7.20;71.40;;;;;;4993432;28;20061;-70
2021/01/13 08:54:38;;;;;;;11.73;3.83;;;7.50;71.00;;;;;;5000623;28;20068;-70
2021/01/13 08:57:07;;;;;;;8.75;3.53;;;8.30;70.20;;;;;;5013073;28;20029;-69
2021/01/13 08:59:37;;;;;;;12.27;3.42;;;9.00;67.50;;;;;;5012135;28;20040;-71
2021/01/13 09:02:05;;;;;;;10.43;3.42;;;9.40;65.70;;;;;;5015097;28;20072;-70
2021/01/13 09:04:49;;;;;;;12.15;4.10;;;9.40;65.90;;;;;;5012818;28;20088;-70
2021/01/13 09:07:23;;;;;;;15.90;4.20;;;9.70;64.50;;;;;;5001037;28;20499;-70
2021/01/13 09:10:02;;;;;;;10.75;4.00;;;9.80;63.60;;;;;;4993963;28;20034;-70
2021/01/13 09:12:47;;;;;;;13.43;3.13;;;9.70;62.90;;;;;;5010728;28;20025;-70
2021/01/13 09:15:18;;;;;;;14.23;4.38;;;9.60;63.30;;;;;;5011838;28;20412;-70
2021/01/13 09:17:51;;;;;;;10.05;3.50;;;9.40;63.70;;;;;;5006801;28;20046;-70
2021/01/13 09:20:18;;;;;;;12.07;3.20;;;8.00;63.60;;;;;;5011199;28;20022;-70
2021/01/13 09:22:56;;;;;;;8.25;2.90;;;9.50;64.90;;;;;;5012202;28;20041;-70
2021/01/13 09:25:28;;;;;;;8.95;2.85;;;9.10;64.60;;;;;;5011571;28;20506;-70
2021/01/13 09:27:56;;;;;;;7.60;2.50;;;9.20;64.90;;;;;;5011093;28;20125;-70
2021/01/13 09:30:37;;;;;;;10.93;3.22;;;9.20;64.90;;;;;;5013116;28;20037;-70
2021/01/13 09:33:14;;;;;;;9.00;2.92;;;9.00;64.50;;;;;;5014457;28;20172;-71
2021/01/13 09:35:42;;;;;;;8.57;2.58;;;8.80;65.00;;;;;;5011527;28;20041;-70
2021/01/13 09:38:13;;;;;;;13.85;4.47;;;8.80;65.50;;;;;;5013235;28;20045;-70
2021/01/13 09:41:01;;;;;;;10.18;2.72;;;8.70;65.60;;;;;;5011908;28;20136;-70
2021/01/13 09:43:37;;;;;;;10.70;3.90;;;8.70;65.70;;;;;;5010377;28;20026;-70
2021/01/13 09:46:22;;;;;;;17.02;3.40;;;8.60;65.80;;;;;;5013379;28;20076;-70
2021/01/13 09:49:01;;;;;;;8.15;2.97;;;8.60;66.20;;;;;;5011567;28;20060;-70
2021/01/13 09:51:27;;;;;;;7.25;2.45;;;8.70;66.30;;;;;;5001861;28;20076;-70
2021/01/13 09:53:54;;;;;;;13.82;3.88;;;8.60;66.20;;;;;;5011520;28;20088;-70
2021/01/13 09:56:21;;;;;;;9.68;2.45;;;8.50;66.30;;;;;;5012442;28;20034;-70
2021/01/13 09:58:48;;;;;;;8.10;3.08;;;8.50;66.50;;;;;;5012022;28;20116;-70
2021/01/13 10:01:20;;;;;;;10.80;3.85;;;8.50;66.60;;;;;;5011965;28;20037;-70
2021/01/13 10:03:48;;;;;;;8.70;3.05;;;8.60;66.20;;;;;;5013293;28;20041;-70
2021/01/13 10:06:25;;;;;;;10.50;2.95;;;8.50;66.40;;;;;;5010536;28;20113;-70
2021/01/13 10:08:51;;;;;;;13.10;3.53;;;8.50;66.50;;;;;;5001724;28;20108;-69
2021/01/13 10:11:19;;;;;;;13.73;3.17;;;8.40;66.80;;;;;;5011089;28;20468;-69
2021/01/13 10:13:55;;;;;;;9.38;3.40;;;8.40;67.00;;;;;;5011748;28;20096;-70
2021/01/13 10:16:21;;;;;;;10.00;2.70;;;8.40;67.20;;;;;;5002335;28;20453;-70
2021/01/13 10:18:57;;;;;;;10.23;2.60;;;8.50;67.20;;;;;;5003605;28;20132;-69
2021/01/13 10:21:24;;;;;;;8.80;2.63;;;8.50;67.20;;;;;;5011783;28;20037;-69
2021/01/13 10:23:51;;;;;;;9.48;3.35;;;8.60;67.20;;;;;;5011454;28;20077;-70
2021/01/13 10:26:17;;;;;;;11.88;2.83;;;8.60;67.10;;;;;;5011465;28;20045;-70
2021/01/13 10:28:44;;;;;;;11.00;2.75;;;8.60;67.10;;;;;;5011638;28;20050;-70
2021/01/13 10:31:21;;;;;;;8.88;3.53;;;8.70;67.10;;;;;;5013614;28;20471;-70
2021/01/13 10:33:54;;;;;;;12.32;3.10;;;8.80;66.90;;;;;;5013789;28;20044;-70
2021/01/13 10:36:38;;;;;;;14.70;3.35;;;8.90;66.60;;;;;;5012657;28;20069;-70
2021/01/13 10:39:06;;;;;;;10.70;2.85;;;9.10;66.40;;;;;;5011586;28;20030;-69
2021/01/13 10:41:41;;;;;;;10.95;3.40;;;9.20;66.40;;;;;;4993006;28;20137;-71
2021/01/13 10:44:18;;;;;;;12.23;3.58;;;9.20;65.90;;;;;;4997020;28;20018;-70
2021/01/13 10:47:05;;;;;;;8.00;2.40;;;9.10;65.20;;;;;;5009948;28;20029;-70
2021/01/13 10:49:33;;;;;;;8.57;2.47;;;9.00;65.50;;;;;;4991300;28;20379;-69
2021/01/13 10:52:12;;;;;;;10.77;3.13;;;9.00;66.00;;;;;;5006150;28;20022;-70
2021/01/13 10:54:43;;;;;;;10.57;3.22;;;9.00;66.20;;;;;;4992290;28;20164;-70
2021/01/13 10:57:11;;;;;;;10.13;3.25;;;9.10;66.30;;;;;;5009465;28;20387;-70
2021/01/13 10:59:38;;;;;;;14.07;3.95;;;9.20;66.00;;;;;;5009686;28;20039;-70
2021/01/13 11:02:12;;;;;;;11.65;3.53;;;9.30;65.50;;;;;;5018330;28;20471;-70
2021/01/13 11:04:43;;;;;;;11.20;3.70;;;9.30;65.40;;;;;;5017778;28;20034;-70
2021/01/13 11:07:16;;;;;;;15.40;3.13;;;9.30;65.50;;;;;;5011800;28;20034;-70
2021/01/13 11:09:43;;;;;;;;;;;9.30;66.10;;;;;;5005788;28;20034;-70
2021/01/13 11:12:16;;;;;;;10.48;3.10;;;9.40;65.30;;;;;;5011066;28;19921;-70
2021/01/13 11:14:46;;;;;;;9.43;2.95;;;9.30;65.50;;;;;;5011317;28;20121;-69
2021/01/13 11:17:26;;;;;;;12.18;3.83;;;9.40;65.70;;;;;;4999186;28;20500;-70
2021/01/13 11:19:51;;;;;;;12.10;2.58;;;9.40;65.20;;;;;;5009747;28;20049;-70
2021/01/13 11:22:18;;;;;;;9.40;3.15;;;9.40;65.20;;;;;;5009875;28;20356;-70
2021/01/13 11:24:50;;;;;;;9.20;2.70;;;9.30;64.80;;;;;;5011004;28;20046;-70
2021/01/13 11:27:19;;;;;;;11.65;4.20;;;9.30;65.10;;;;;;5010593;28;20042;-70
2021/01/13 11:29:52;;;;;;;11.65;3.10;;;9.40;65.30;;;;;;5010921;28;20127;-70
2021/01/13 11:32:19;;;;;;;8.73;2.83;;;9.50;65.50;;;;;;5009949;28;20460;-70
2021/01/13 11:34:52;;;;;;;10.90;2.65;;;9.50;64.10;;;;;;5009571;28;20109;-70
2021/01/13 11:37:24;;;;;;;;;;;9.40;64.50;;;;;;5011309;28;20030;-70
2021/01/13 11:40:05;;;;;;;11.38;2.40;;;9.50;64.10;;;;;;5010689;28;20640;-69
2021/01/13 11:42:50;;;;;;;12.00;2.60;;;9.50;64.30;;;;;;5009061;28;20120;-70
2021/01/13 11:45:18;;;;;;;14.55;3.70;;;9.40;64.50;;;;;;5008335;28;20026;-71
2021/01/13 11:47:51;;;;;;;7.75;2.45;;;9.40;64.90;;;;;;5009374;28;20040;-70
2021/01/13 11:50:22;;;;;;;11.48;2.70;;;9.40;65.30;;;;;;4998894;28;20021;-69
2021/01/13 11:53:02;;;;;;;15.73;3.25;;;9.30;65.10;;;;;;5011112;28;20034;-70
2021/01/13 11:55:28;;;;;;;7.28;2.15;;;9.30;65.20;;;;;;4995745;28;20029;-70
2021/01/13 11:57:55;;;;;;;16.58;3.90;;;9.30;65.40;;;;;;5007053;28;20045;-70
2021/01/13 12:00:29;;;;;;;10.13;3.85;;;9.30;65.50;;;;;;4999742;28;20441;-70
2021/01/13 12:02:59;;;;;;;8.85;2.55;;;9.30;65.40;;;;;;5010207;28;20038;-69
2021/01/13 12:05:29;;;;;;;10.82;3.15;;;9.30;65.50;;;;;;5009790;28;20072;-70
2021/01/13 12:07:57;;;;;;;8.85;3.45;;;9.40;65.00;;;;;;5010328;28;20065;-70
2021/01/13 12:10:22;;;;;;;8.98;2.60;;;9.40;65.00;;;;;;5009437;28;20434;-70
2021/01/13 12:12:48;;;;;;;12.18;3.40;;;9.40;65.40;;;;;;5010390;28;20037;-70
2021/01/13 12:15:14;;;;;;;10.25;2.97;;;9.40;65.50;;;;;;5008621;28;20034;-70
2021/01/13 12:17:52;;;;;;;12.27;3.38;;;9.50;65.40;;;;;;4991057;28;20473;-69
2021/01/13 12:20:34;;;;;;;9.98;3.38;;;9.70;65.10;;;;;;5007317;28;20129;-69
2021/01/13 12:23:35;;;;;;;8.05;2.67;;;9.80;64.60;;;;;;5005218;28;20306;-72
2021/01/13 12:26:19;;;;;;;6.28;2.47;;;9.90;62.30;;;;;;5005132;28;20054;-70
2021/01/13 12:28:46;;;;;;;11.57;2.58;;;10.00;60.90;;;;;;4996389;28;20054;-69
2021/01/13 12:31:17;;;;;;;9.40;2.22;;;10.00;59.00;;;;;;5005087;28;20097;-69
2021/01/13 12:33:50;;;;;;;11.45;2.55;;;9.90;58.60;;;;;;5000922;28;20038;-70
2021/01/13 12:36:27;;;;;;;10.32;3.22;;;9.90;58.80;;;;;;5008091;28;20018;-69
2021/01/13 12:38:54;;;;;;;15.35;2.90;;;9.90;58.10;;;;;;4999990;28;20034;-69
2021/01/13 12:41:25;;;;;;;8.32;2.22;;;9.90;57.60;;;;;;5001915;28;20037;-69
2021/01/13 12:43:52;;;;;;;9.68;2.20;;;10.00;56.80;;;;;;5013046;28;20044;-69
2021/01/13 12:46:29;;;;;;;6.45;2.25;;;10.10;56.30;;;;;;5012352;28;20025;-69
2021/01/13 12:48:56;;;;;;;9.40;2.10;;;10.30;56.60;;;;;;4999555;28;20088;-70
2021/01/13 12:51:21;;;;;;;7.70;1.83;;;10.40;56.10;;;;;;5010798;28;20045;-69
2021/01/13 12:53:47;;;;;;;9.43;2.42;;;10.50;55.90;;;;;;5013936;28;20029;-69
2021/01/13 12:56:23;;;;;;;8.60;1.73;;;10.50;55.20;;;;;;5013679;28;20057;-69
2021/01/13 12:58:49;;;;;;;7.30;2.35;;;10.40;55.20;;;;;;5010212;28;20030;-69
2021/01/13 13:01:14;;;;;;;6.25;1.70;;;10.40;55.30;;;;;;5008786;28;20496;-69
2021/01/13 13:03:40;;;;;;;8.23;2.20;;;10.40;55.40;;;;;;4993688;28;20030;-70
2021/01/13 13:06:08;;;;;;;8.88;2.80;;;10.30;55.40;;;;;;5008641;28;20045;-69
2021/01/13 13:08:36;;;;;;;15.07;3.45;;;10.30;55.30;;;;;;4999503;28;20037;-70
2021/01/13 13:11:08;;;;;;;7.93;2.08;;;10.30;54.90;;;;;;5006741;28;20034;-69
2021/01/13 13:13:34;;;;;;;7.43;1.98;;;10.20;55.00;;;;;;5014903;28;20046;-69
2021/01/13 13:15:59;;;;;;;7.18;1.75;;;10.20;55.10;;;;;;5013326;28;20088;-69
2021/01/13 13:18:25;;;;;;;6.30;2.08;;;10.10;54.40;;;;;;4999476;28;20057;-69